sensor_id;sensor_type;location;lat;lon;timestamp;temperature;humidity
21238;DHT22;10777;50.828;3.264;2022-10-26T00:00:48;16.40;99.90
21238;DHT22;10777;50.828;3.264;2022-10-26T00:03:14;16.50;99.90
21238;DHT22;10777;50.828;3.264;2022-10-26T00:05:40;16.40;99.90
21238;DHT22;10777;50.828;3.264;2022-10-26T00:08:06;16.30;99.90
21238;DHT22;10777;50.828;3.264;2022-10-26T00:10:34;16.30;99.90
21238;DHT22;10777;50.828;3.264;2022-10-26T00:13:00;16.40;99.90
21238;DHT22;10777;50.828;3.264;2022-10-26T00:15:27;16.30;99.90
21238;DHT22;10777;50.828;3.264;2022-10-26T00:17:53;16.30;99.90
21238;DHT22;10777;50.828;3.264;2022-10-26T00:20:19;16.30;99.90
21238;DHT22;10777;50.828;3.264;2022-10-26T00:22:44;16.40;99.90
21238;DHT22;10777;50.828;3.264;2022-10-26T00:25:10;16.40;99.90
21238;DHT22;10777;50.828;3.264;2022-10-26T00:27:36;16.30;99.90
21238;DHT22;10777;50.828;3.264;2022-10-26T00:30:03;16.40;99.90
21238;DHT22;10777;50.828;3.264;2022-10-26T00:32:29;16.20;99.90
21238;DHT22;10777;50.828;3.264;2022-10-26T00:34:54;16.20;99.90
21238;DHT22;10777;50.828;3.264;2022-10-26T00:37:20;16.30;99.90
21238;DHT22;10777;50.828;3.264;2022-10-26T00:39:46;16.40;99.90
21238;DHT22;10777;50.828;3.264;2022-10-26T00:42:15;16.40;99.90
21238;DHT22;10777;50.828;3.264;2022-10-26T00:45:03;16.40;99.90
21238;DHT22;10777;50.828;3.264;2022-10-26T00:47:37;16.30;99.90
21238;DHT22;10777;50.828;3.264;2022-10-26T00:50:09;16.20;99.90
21238;DHT22;10777;50.828;3.264;2022-10-26T00:52:36;16.20;99.90
21238;DHT22;10777;50.828;3.264;2022-10-26T00:55:03;16.30;99.90
21238;DHT22;10777;50.828;3.264;2022-10-26T00:57:30;16.40;99.90
21238;DHT22;10777;50.828;3.264;2022-10-26T00:59:56;16.60;99.90
21238;DHT22;10777;50.828;3.264;2022-10-26T01:02:22;16.60;99.90
21238;DHT22;10777;50.828;3.264;2022-10-26T01:04:48;16.70;99.90
21238;DHT22;10777;50.828;3.264;2022-10-26T01:07:14;16.70;99.90
21238;DHT22;10777;50.828;3.264;2022-10-26T01:09:40;16.80;99.90
21238;DHT22;10777;50.828;3.264;2022-10-26T01:12:06;16.80;99.90
21238;DHT22;10777;50.828;3.264;2022-10-26T01:14:32;16.90;99.90
21238;DHT22;10777;50.828;3.264;2022-10-26T01:17:07;16.90;99.90
21238;DHT22;10777;50.828;3.264;2022-10-26T01:20:01;16.90;99.90
21238;DHT22;10777;50.828;3.264;2022-10-26T01:22:43;16.90;99.90
21238;DHT22;10777;50.828;3.264;2022-10-26T01:25:27;16.80;99.90
21238;DHT22;10777;50.828;3.264;2022-10-26T01:28:01;16.60;99.90
21238;DHT22;10777;50.828;3.264;2022-10-26T01:30:35;16.50;99.90
21238;DHT22;10777;50.828;3.264;2022-10-26T01:33:14;16.70;99.90
21238;DHT22;10777;50.828;3.264;2022-10-26T01:38:59;16.60;99.90
21238;DHT22;10777;50.828;3.264;2022-10-26T01:41:46;16.80;99.90
21238;DHT22;10777;50.828;3.264;2022-10-26T01:44:25;16.90;99.90
21238;DHT22;10777;50.828;3.264;2022-10-26T01:46:54;16.70;99.90
21238;DHT22;10777;50.828;3.264;2022-10-26T01:49:25;16.70;99.90
21238;DHT22;10777;50.828;3.264;2022-10-26T01:51:52;16.80;99.90
21238;DHT22;10777;50.828;3.264;2022-10-26T01:54:18;16.90;99.90
21238;DHT22;10777;50.828;3.264;2022-10-26T01:56:46;16.90;99.90
21238;DHT22;10777;50.828;3.264;2022-10-26T01:59:29;16.90;99.90
21238;DHT22;10777;50.828;3.264;2022-10-26T02:02:22;16.90;99.90
21238;DHT22;10777;50.828;3.264;2022-10-26T02:05:09;17.00;99.90
21238;DHT22;10777;50.828;3.264;2022-10-26T02:13:42;17.10;99.90
21238;DHT22;10777;50.828;3.264;2022-10-26T02:16:18;17.00;99.90
21238;DHT22;10777;50.828;3.264;2022-10-26T02:19:02;17.10;99.90
21238;DHT22;10777;50.828;3.264;2022-10-26T02:21:37;17.00;99.90
21238;DHT22;10777;50.828;3.264;2022-10-26T02:24:05;17.00;99.90
21238;DHT22;10777;50.828;3.264;2022-10-26T02:26:32;17.10;99.90
21238;DHT22;10777;50.828;3.264;2022-10-26T02:29:01;17.20;99.90
21238;DHT22;10777;50.828;3.264;2022-10-26T02:31:29;17.20;99.90
21238;DHT22;10777;50.828;3.264;2022-10-26T02:33:59;17.30;99.90
21238;DHT22;10777;50.828;3.264;2022-10-26T02:36:29;17.20;99.90
21238;DHT22;10777;50.828;3.264;2022-10-26T02:38:57;17.20;99.90
21238;DHT22;10777;50.828;3.264;2022-10-26T02:41:26;17.10;99.90
21238;DHT22;10777;50.828;3.264;2022-10-26T02:44:01;17.20;99.90
21238;DHT22;10777;50.828;3.264;2022-10-26T02:46:29;17.10;99.90
21238;DHT22;10777;50.828;3.264;2022-10-26T02:48:55;17.00;99.90
21238;DHT22;10777;50.828;3.264;2022-10-26T02:51:30;17.30;99.90
21238;DHT22;10777;50.828;3.264;2022-10-26T02:54:13;17.30;99.90
21238;DHT22;10777;50.828;3.264;2022-10-26T02:56:47;17.30;99.90
21238;DHT22;10777;50.828;3.264;2022-10-26T02:59:16;17.20;99.90
21238;DHT22;10777;50.828;3.264;2022-10-26T03:01:43;17.20;99.90
21238;DHT22;10777;50.828;3.264;2022-10-26T03:04:09;17.00;99.90
21238;DHT22;10777;50.828;3.264;2022-10-26T03:06:35;17.10;99.90
21238;DHT22;10777;50.828;3.264;2022-10-26T03:09:00;17.00;99.90
21238;DHT22;10777;50.828;3.264;2022-10-26T03:11:26;16.90;99.90
21238;DHT22;10777;50.828;3.264;2022-10-26T03:13:51;16.80;99.90
21238;DHT22;10777;50.828;3.264;2022-10-26T03:16:17;16.90;99.90
21238;DHT22;10777;50.828;3.264;2022-10-26T03:18:43;17.00;99.90
21238;DHT22;10777;50.828;3.264;2022-10-26T03:21:08;17.00;99.90
21238;DHT22;10777;50.828;3.264;2022-10-26T03:23:34;17.00;99.90
21238;DHT22;10777;50.828;3.264;2022-10-26T03:25:59;17.00;99.90
21238;DHT22;10777;50.828;3.264;2022-10-26T03:28:25;16.90;99.90
21238;DHT22;10777;50.828;3.264;2022-10-26T03:30:51;16.80;99.90
21238;DHT22;10777;50.828;3.264;2022-10-26T03:33:19;16.90;99.90
21238;DHT22;10777;50.828;3.264;2022-10-26T03:35:45;17.00;99.90
21238;DHT22;10777;50.828;3.264;2022-10-26T03:38:10;17.00;99.90
21238;DHT22;10777;50.828;3.264;2022-10-26T03:40:36;17.10;99.90
21238;DHT22;10777;50.828;3.264;2022-10-26T03:43:02;17.00;99.90
21238;DHT22;10777;50.828;3.264;2022-10-26T03:45:27;16.90;99.90
21238;DHT22;10777;50.828;3.264;2022-10-26T03:47:53;17.00;99.90
21238;DHT22;10777;50.828;3.264;2022-10-26T03:50:20;17.20;99.90
21238;DHT22;10777;50.828;3.264;2022-10-26T03:52:47;17.30;99.90
21238;DHT22;10777;50.828;3.264;2022-10-26T03:55:13;17.10;99.90
21238;DHT22;10777;50.828;3.264;2022-10-26T03:57:41;17.10;99.90
21238;DHT22;10777;50.828;3.264;2022-10-26T04:00:08;16.90;99.90
21238;DHT22;10777;50.828;3.264;2022-10-26T04:02:33;16.90;99.90
21238;DHT22;10777;50.828;3.264;2022-10-26T04:04:59;16.90;99.90
21238;DHT22;10777;50.828;3.264;2022-10-26T04:07:24;17.00;99.90
21238;DHT22;10777;50.828;3.264;2022-10-26T04:09:50;17.00;99.90
21238;DHT22;10777;50.828;3.264;2022-10-26T04:12:16;17.10;99.90
21238;DHT22;10777;50.828;3.264;2022-10-26T04:14:41;17.00;99.90
21238;DHT22;10777;50.828;3.264;2022-10-26T04:17:07;16.90;99.90
21238;DHT22;10777;50.828;3.264;2022-10-26T04:19:32;17.00;99.90
21238;DHT22;10777;50.828;3.264;2022-10-26T04:21:58;17.10;99.90
21238;DHT22;10777;50.828;3.264;2022-10-26T04:24:23;17.30;99.90
21238;DHT22;10777;50.828;3.264;2022-10-26T04:26:49;17.30;99.90
21238;DHT22;10777;50.828;3.264;2022-10-26T04:29:14;17.00;99.90
21238;DHT22;10777;50.828;3.264;2022-10-26T04:31:40;17.00;99.90
21238;DHT22;10777;50.828;3.264;2022-10-26T04:34:06;17.10;99.90
21238;DHT22;10777;50.828;3.264;2022-10-26T04:36:32;17.00;99.90
21238;DHT22;10777;50.828;3.264;2022-10-26T04:38:58;17.20;99.90
21238;DHT22;10777;50.828;3.264;2022-10-26T04:41:24;17.30;99.90
21238;DHT22;10777;50.828;3.264;2022-10-26T04:43:50;17.20;99.90
21238;DHT22;10777;50.828;3.264;2022-10-26T04:46:15;17.20;99.90
21238;DHT22;10777;50.828;3.264;2022-10-26T04:48:41;17.20;99.90
21238;DHT22;10777;50.828;3.264;2022-10-26T04:51:06;17.20;99.90
21238;DHT22;10777;50.828;3.264;2022-10-26T04:53:32;17.20;99.90
21238;DHT22;10777;50.828;3.264;2022-10-26T04:55:59;17.10;99.90
21238;DHT22;10777;50.828;3.264;2022-10-26T04:58:27;17.00;99.90
21238;DHT22;10777;50.828;3.264;2022-10-26T05:00:53;17.10;99.90
21238;DHT22;10777;50.828;3.264;2022-10-26T05:03:19;17.20;99.90
21238;DHT22;10777;50.828;3.264;2022-10-26T05:05:45;17.10;99.90
21238;DHT22;10777;50.828;3.264;2022-10-26T05:08:12;17.20;99.90
21238;DHT22;10777;50.828;3.264;2022-10-26T05:10:38;17.00;99.90
21238;DHT22;10777;50.828;3.264;2022-10-26T05:13:04;17.00;99.90
21238;DHT22;10777;50.828;3.264;2022-10-26T05:15:29;17.00;99.90
21238;DHT22;10777;50.828;3.264;2022-10-26T05:17:57;17.00;99.90
21238;DHT22;10777;50.828;3.264;2022-10-26T05:20:24;17.00;99.90
21238;DHT22;10777;50.828;3.264;2022-10-26T05:22:58;16.80;99.90
21238;DHT22;10777;50.828;3.264;2022-10-26T05:25:26;16.90;99.90
21238;DHT22;10777;50.828;3.264;2022-10-26T05:27:58;16.80;99.90
21238;DHT22;10777;50.828;3.264;2022-10-26T05:30:24;16.80;99.90
21238;DHT22;10777;50.828;3.264;2022-10-26T05:32:53;16.70;99.90
21238;DHT22;10777;50.828;3.264;2022-10-26T05:35:19;16.80;99.90
21238;DHT22;10777;50.828;3.264;2022-10-26T05:37:45;16.80;99.90
21238;DHT22;10777;50.828;3.264;2022-10-26T05:40:11;16.70;99.90
21238;DHT22;10777;50.828;3.264;2022-10-26T05:42:36;16.70;99.90
21238;DHT22;10777;50.828;3.264;2022-10-26T05:45:02;16.70;99.90
21238;DHT22;10777;50.828;3.264;2022-10-26T05:47:28;16.80;99.90
21238;DHT22;10777;50.828;3.264;2022-10-26T05:49:53;16.80;99.90
21238;DHT22;10777;50.828;3.264;2022-10-26T05:52:19;16.70;99.90
21238;DHT22;10777;50.828;3.264;2022-10-26T05:54:44;16.60;99.90
21238;DHT22;10777;50.828;3.264;2022-10-26T05:57:11;16.70;99.90
21238;DHT22;10777;50.828;3.264;2022-10-26T05:59:37;16.80;99.90
21238;DHT22;10777;50.828;3.264;2022-10-26T06:02:16;16.70;99.90
21238;DHT22;10777;50.828;3.264;2022-10-26T06:04:44;16.80;99.90
21238;DHT22;10777;50.828;3.264;2022-10-26T06:07:15;16.80;99.90
21238;DHT22;10777;50.828;3.264;2022-10-26T06:09:41;16.80;99.90
21238;DHT22;10777;50.828;3.264;2022-10-26T06:12:08;17.00;99.90
21238;DHT22;10777;50.828;3.264;2022-10-26T06:14:34;16.80;99.90
21238;DHT22;10777;50.828;3.264;2022-10-26T06:17:18;16.70;99.90
21238;DHT22;10777;50.828;3.264;2022-10-26T06:26:03;17.00;99.90
21238;DHT22;10777;50.828;3.264;2022-10-26T06:28:55;17.10;99.90
21238;DHT22;10777;50.828;3.264;2022-10-26T06:31:24;17.10;99.90
21238;DHT22;10777;50.828;3.264;2022-10-26T06:33:52;17.00;99.90
21238;DHT22;10777;50.828;3.264;2022-10-26T06:36:23;17.20;99.90
21238;DHT22;10777;50.828;3.264;2022-10-26T06:39:01;17.10;99.90
21238;DHT22;10777;50.828;3.264;2022-10-26T06:41:30;16.90;99.90
21238;DHT22;10777;50.828;3.264;2022-10-26T06:43:56;17.00;99.90
21238;DHT22;10777;50.828;3.264;2022-10-26T06:46:45;17.10;99.90
21238;DHT22;10777;50.828;3.264;2022-10-26T06:49:34;17.30;99.90
21238;DHT22;10777;50.828;3.264;2022-10-26T06:52:09;17.30;99.90
21238;DHT22;10777;50.828;3.264;2022-10-26T06:54:53;17.30;99.90
21238;DHT22;10777;50.828;3.264;2022-10-26T06:57:21;17.10;99.90
21238;DHT22;10777;50.828;3.264;2022-10-26T06:59:54;17.00;99.90
21238;DHT22;10777;50.828;3.264;2022-10-26T07:02:21;17.00;99.90
21238;DHT22;10777;50.828;3.264;2022-10-26T07:04:47;17.00;99.90
21238;DHT22;10777;50.828;3.264;2022-10-26T07:07:18;17.00;99.90
21238;DHT22;10777;50.828;3.264;2022-10-26T07:09:44;17.00;99.90
21238;DHT22;10777;50.828;3.264;2022-10-26T07:12:10;17.10;99.90
21238;DHT22;10777;50.828;3.264;2022-10-26T07:14:36;17.10;99.90
21238;DHT22;10777;50.828;3.264;2022-10-26T07:17:01;17.10;99.90
21238;DHT22;10777;50.828;3.264;2022-10-26T07:19:27;17.20;99.90
21238;DHT22;10777;50.828;3.264;2022-10-26T07:21:54;17.30;99.90
21238;DHT22;10777;50.828;3.264;2022-10-26T07:24:21;17.10;99.90
21238;DHT22;10777;50.828;3.264;2022-10-26T07:26:47;17.30;99.90
21238;DHT22;10777;50.828;3.264;2022-10-26T07:29:13;17.30;99.90
21238;DHT22;10777;50.828;3.264;2022-10-26T07:31:40;17.50;99.90
21238;DHT22;10777;50.828;3.264;2022-10-26T07:34:06;17.50;99.90
21238;DHT22;10777;50.828;3.264;2022-10-26T07:36:32;17.50;99.90
21238;DHT22;10777;50.828;3.264;2022-10-26T07:38:58;17.60;99.90
21238;DHT22;10777;50.828;3.264;2022-10-26T07:41:23;17.50;99.90
21238;DHT22;10777;50.828;3.264;2022-10-26T07:43:49;17.60;99.90
21238;DHT22;10777;50.828;3.264;2022-10-26T07:46:15;17.60;99.90
21238;DHT22;10777;50.828;3.264;2022-10-26T07:48:42;17.60;99.90
21238;DHT22;10777;50.828;3.264;2022-10-26T07:51:07;17.60;99.90
21238;DHT22;10777;50.828;3.264;2022-10-26T07:53:33;17.60;99.90
21238;DHT22;10777;50.828;3.264;2022-10-26T07:55:59;17.70;99.90
21238;DHT22;10777;50.828;3.264;2022-10-26T07:58:24;17.90;99.90
21238;DHT22;10777;50.828;3.264;2022-10-26T08:00:52;17.90;99.90
21238;DHT22;10777;50.828;3.264;2022-10-26T08:03:18;17.80;99.90
21238;DHT22;10777;50.828;3.264;2022-10-26T08:05:46;17.80;99.90
21238;DHT22;10777;50.828;3.264;2022-10-26T08:08:16;17.90;99.90
21238;DHT22;10777;50.828;3.264;2022-10-26T08:10:44;18.00;99.90
21238;DHT22;10777;50.828;3.264;2022-10-26T08:13:10;18.10;99.90
21238;DHT22;10777;50.828;3.264;2022-10-26T08:15:36;18.30;99.90
21238;DHT22;10777;50.828;3.264;2022-10-26T08:18:01;18.40;99.90
21238;DHT22;10777;50.828;3.264;2022-10-26T08:20:27;18.50;99.90
21238;DHT22;10777;50.828;3.264;2022-10-26T08:22:55;18.60;99.90
21238;DHT22;10777;50.828;3.264;2022-10-26T08:25:21;18.60;99.90
21238;DHT22;10777;50.828;3.264;2022-10-26T08:27:47;18.50;99.90
21238;DHT22;10777;50.828;3.264;2022-10-26T08:30:12;18.80;99.90
21238;DHT22;10777;50.828;3.264;2022-10-26T08:32:38;18.90;99.90
21238;DHT22;10777;50.828;3.264;2022-10-26T08:35:04;18.90;99.90
21238;DHT22;10777;50.828;3.264;2022-10-26T08:37:30;18.70;99.90
21238;DHT22;10777;50.828;3.264;2022-10-26T08:39:55;18.60;99.90
21238;DHT22;10777;50.828;3.264;2022-10-26T08:42:27;18.60;99.90
21238;DHT22;10777;50.828;3.264;2022-10-26T08:45:00;18.70;99.90
21238;DHT22;10777;50.828;3.264;2022-10-26T08:47:33;18.70;99.90
21238;DHT22;10777;50.828;3.264;2022-10-26T08:50:08;18.90;99.90
21238;DHT22;10777;50.828;3.264;2022-10-26T08:52:40;19.00;99.90
21238;DHT22;10777;50.828;3.264;2022-10-26T08:55:18;19.00;99.90
21238;DHT22;10777;50.828;3.264;2022-10-26T08:57:46;19.00;99.90
21238;DHT22;10777;50.828;3.264;2022-10-26T09:00:18;19.20;99.90
21238;DHT22;10777;50.828;3.264;2022-10-26T09:02:49;19.20;99.90
21238;DHT22;10777;50.828;3.264;2022-10-26T09:05:18;19.30;99.90
21238;DHT22;10777;50.828;3.264;2022-10-26T09:10:43;19.10;99.90
21238;DHT22;10777;50.828;3.264;2022-10-26T09:13:27;19.00;99.90
21238;DHT22;10777;50.828;3.264;2022-10-26T09:16:05;19.10;99.90
21238;DHT22;10777;50.828;3.264;2022-10-26T09:19:01;19.30;99.90
21238;DHT22;10777;50.828;3.264;2022-10-26T09:21:56;19.50;99.90
21238;DHT22;10777;50.828;3.264;2022-10-26T09:24:31;19.70;99.90
21238;DHT22;10777;50.828;3.264;2022-10-26T09:27:06;19.70;99.90
21238;DHT22;10777;50.828;3.264;2022-10-26T09:29:41;19.60;99.90
21238;DHT22;10777;50.828;3.264;2022-10-26T09:32:17;19.80;99.90
21238;DHT22;10777;50.828;3.264;2022-10-26T09:35:03;19.60;99.90
21238;DHT22;10777;50.828;3.264;2022-10-26T09:37:35;19.80;99.90
21238;DHT22;10777;50.828;3.264;2022-10-26T09:40:11;19.70;99.90
21238;DHT22;10777;50.828;3.264;2022-10-26T09:42:45;20.00;99.90
21238;DHT22;10777;50.828;3.264;2022-10-26T09:45:22;19.90;99.90
21238;DHT22;10777;50.828;3.264;2022-10-26T09:47:50;20.00;99.90
21238;DHT22;10777;50.828;3.264;2022-10-26T09:50:38;19.90;99.90
21238;DHT22;10777;50.828;3.264;2022-10-26T09:53:04;19.90;99.90
21238;DHT22;10777;50.828;3.264;2022-10-26T09:55:31;19.80;99.90
21238;DHT22;10777;50.828;3.264;2022-10-26T09:58:00;19.70;99.90
21238;DHT22;10777;50.828;3.264;2022-10-26T10:00:28;19.60;99.90
21238;DHT22;10777;50.828;3.264;2022-10-26T10:02:56;19.70;99.90
21238;DHT22;10777;50.828;3.264;2022-10-26T10:05:26;20.00;99.90
21238;DHT22;10777;50.828;3.264;2022-10-26T10:08:17;20.10;99.90
21238;DHT22;10777;50.828;3.264;2022-10-26T10:10:58;20.30;99.90
21238;DHT22;10777;50.828;3.264;2022-10-26T10:13:26;20.30;99.90
21238;DHT22;10777;50.828;3.264;2022-10-26T10:16:01;20.20;99.90
21238;DHT22;10777;50.828;3.264;2022-10-26T10:18:28;20.20;99.90
21238;DHT22;10777;50.828;3.264;2022-10-26T10:20:55;20.20;99.90
21238;DHT22;10777;50.828;3.264;2022-10-26T10:23:49;20.40;99.90
21238;DHT22;10777;50.828;3.264;2022-10-26T10:26:17;20.40;99.90
21238;DHT22;10777;50.828;3.264;2022-10-26T10:28:56;20.30;99.90
21238;DHT22;10777;50.828;3.264;2022-10-26T10:31:28;20.40;99.90
21238;DHT22;10777;50.828;3.264;2022-10-26T10:33:54;20.50;99.90
21238;DHT22;10777;50.828;3.264;2022-10-26T10:36:22;20.70;99.90
21238;DHT22;10777;50.828;3.264;2022-10-26T10:38:51;21.20;99.90
21238;DHT22;10777;50.828;3.264;2022-10-26T10:41:34;21.00;99.90
21238;DHT22;10777;50.828;3.264;2022-10-26T10:44:21;20.80;99.90
21238;DHT22;10777;50.828;3.264;2022-10-26T10:46:48;20.80;99.90
21238;DHT22;10777;50.828;3.264;2022-10-26T10:49:22;20.60;99.90
21238;DHT22;10777;50.828;3.264;2022-10-26T10:51:49;20.70;99.90
21238;DHT22;10777;50.828;3.264;2022-10-26T10:54:28;20.90;99.90
21238;DHT22;10777;50.828;3.264;2022-10-26T10:57:08;21.10;99.90
21238;DHT22;10777;50.828;3.264;2022-10-26T10:59:46;20.90;99.90
21238;DHT22;10777;50.828;3.264;2022-10-26T11:02:44;21.00;99.90
21238;DHT22;10777;50.828;3.264;2022-10-26T11:05:32;21.20;99.90
21238;DHT22;10777;50.828;3.264;2022-10-26T11:08:07;21.20;99.90
21238;DHT22;10777;50.828;3.264;2022-10-26T11:10:37;21.40;99.90
21238;DHT22;10777;50.828;3.264;2022-10-26T11:13:17;21.40;99.90
21238;DHT22;10777;50.828;3.264;2022-10-26T11:15:47;21.40;99.90
21238;DHT22;10777;50.828;3.264;2022-10-26T11:18:18;21.60;99.90
21238;DHT22;10777;50.828;3.264;2022-10-26T11:20:53;21.70;99.90
21238;DHT22;10777;50.828;3.264;2022-10-26T11:23:33;21.70;99.90
21238;DHT22;10777;50.828;3.264;2022-10-26T11:26:11;21.70;99.90
21238;DHT22;10777;50.828;3.264;2022-10-26T11:28:48;21.80;99.90
21238;DHT22;10777;50.828;3.264;2022-10-26T11:31:22;21.90;99.90
21238;DHT22;10777;50.828;3.264;2022-10-26T11:34:15;21.90;99.90
21238;DHT22;10777;50.828;3.264;2022-10-26T11:36:48;21.90;99.90
21238;DHT22;10777;50.828;3.264;2022-10-26T11:39:24;21.60;99.90
21238;DHT22;10777;50.828;3.264;2022-10-26T11:42:10;21.70;99.90
21238;DHT22;10777;50.828;3.264;2022-10-26T11:44:43;22.30;99.90
21238;DHT22;10777;50.828;3.264;2022-10-26T11:47:17;23.10;99.90
21238;DHT22;10777;50.828;3.264;2022-10-26T11:52:41;23.40;99.90
21238;DHT22;10777;50.828;3.264;2022-10-26T11:55:10;24.00;99.90
21238;DHT22;10777;50.828;3.264;2022-10-26T11:57:36;24.20;99.90
21238;DHT22;10777;50.828;3.264;2022-10-26T12:00:12;24.20;99.90
21238;DHT22;10777;50.828;3.264;2022-10-26T12:02:41;25.10;99.90
21238;DHT22;10777;50.828;3.264;2022-10-26T12:05:19;25.30;99.90
21238;DHT22;10777;50.828;3.264;2022-10-26T12:07:49;25.00;99.90
21238;DHT22;10777;50.828;3.264;2022-10-26T12:10:33;25.10;99.90
21238;DHT22;10777;50.828;3.264;2022-10-26T12:13:24;25.70;99.90
21238;DHT22;10777;50.828;3.264;2022-10-26T12:16:16;26.60;99.90
21238;DHT22;10777;50.828;3.264;2022-10-26T12:18:50;27.90;99.90
21238;DHT22;10777;50.828;3.264;2022-10-26T12:21:18;28.60;99.90
21238;DHT22;10777;50.828;3.264;2022-10-26T12:26:51;27.30;99.90
21238;DHT22;10777;50.828;3.264;2022-10-26T12:29:30;27.30;99.90
21238;DHT22;10777;50.828;3.264;2022-10-26T12:31:56;27.20;99.90
21238;DHT22;10777;50.828;3.264;2022-10-26T12:34:55;27.10;99.90
21238;DHT22;10777;50.828;3.264;2022-10-26T12:37:23;26.60;99.90
21238;DHT22;10777;50.828;3.264;2022-10-26T12:39:53;26.40;99.90
21238;DHT22;10777;50.828;3.264;2022-10-26T12:42:27;25.60;99.90
21238;DHT22;10777;50.828;3.264;2022-10-26T12:45:12;24.90;99.90
21238;DHT22;10777;50.828;3.264;2022-10-26T12:48:00;24.30;99.90
21238;DHT22;10777;50.828;3.264;2022-10-26T12:50:26;23.70;99.90
21238;DHT22;10777;50.828;3.264;2022-10-26T12:52:53;23.20;99.90
21238;DHT22;10777;50.828;3.264;2022-10-26T12:55:52;23.00;99.90
21238;DHT22;10777;50.828;3.264;2022-10-26T12:58:37;22.60;99.90
21238;DHT22;10777;50.828;3.264;2022-10-26T13:01:31;22.40;99.90
21238;DHT22;10777;50.828;3.264;2022-10-26T13:04:24;22.20;99.90
21238;DHT22;10777;50.828;3.264;2022-10-26T13:09:49;22.00;99.90
21238;DHT22;10777;50.828;3.264;2022-10-26T13:12:16;22.20;99.90
21238;DHT22;10777;50.828;3.264;2022-10-26T13:15:02;22.20;99.90
21238;DHT22;10777;50.828;3.264;2022-10-26T13:17:31;22.30;99.90
21238;DHT22;10777;50.828;3.264;2022-10-26T13:20:00;22.20;99.90
21238;DHT22;10777;50.828;3.264;2022-10-26T13:22:27;22.40;99.90
21238;DHT22;10777;50.828;3.264;2022-10-26T13:24:57;22.50;99.90
21238;DHT22;10777;50.828;3.264;2022-10-26T13:27:42;22.50;99.90
21238;DHT22;10777;50.828;3.264;2022-10-26T13:30:19;22.40;99.90
21238;DHT22;10777;50.828;3.264;2022-10-26T13:32:51;22.30;99.90
21238;DHT22;10777;50.828;3.264;2022-10-26T13:35:19;22.40;99.90
21238;DHT22;10777;50.828;3.264;2022-10-26T13:37:47;22.30;99.90
21238;DHT22;10777;50.828;3.264;2022-10-26T13:40:19;22.20;99.90
21238;DHT22;10777;50.828;3.264;2022-10-26T13:42:48;22.40;99.90
21238;DHT22;10777;50.828;3.264;2022-10-26T13:45:18;22.50;99.90
21238;DHT22;10777;50.828;3.264;2022-10-26T13:47:50;22.50;99.90
21238;DHT22;10777;50.828;3.264;2022-10-26T13:50:23;22.40;99.90
21238;DHT22;10777;50.828;3.264;2022-10-26T13:52:53;22.50;99.90
21238;DHT22;10777;50.828;3.264;2022-10-26T13:55:25;22.50;99.90
21238;DHT22;10777;50.828;3.264;2022-10-26T14:01:15;22.50;99.90
21238;DHT22;10777;50.828;3.264;2022-10-26T14:03:41;22.50;99.90
21238;DHT22;10777;50.828;3.264;2022-10-26T14:06:16;22.60;99.90
21238;DHT22;10777;50.828;3.264;2022-10-26T14:08:43;22.50;99.90
21238;DHT22;10777;50.828;3.264;2022-10-26T14:11:13;22.50;99.90
21238;DHT22;10777;50.828;3.264;2022-10-26T14:13:41;22.40;99.90
21238;DHT22;10777;50.828;3.264;2022-10-26T14:16:08;22.50;99.90
21238;DHT22;10777;50.828;3.264;2022-10-26T14:18:36;22.60;99.90
21238;DHT22;10777;50.828;3.264;2022-10-26T14:21:05;22.60;99.90
21238;DHT22;10777;50.828;3.264;2022-10-26T14:23:53;22.60;99.90
21238;DHT22;10777;50.828;3.264;2022-10-26T14:26:25;22.70;99.90
21238;DHT22;10777;50.828;3.264;2022-10-26T14:28:54;22.70;99.90
21238;DHT22;10777;50.828;3.264;2022-10-26T14:31:26;22.60;99.90
21238;DHT22;10777;50.828;3.264;2022-10-26T14:33:52;22.70;99.90
21238;DHT22;10777;50.828;3.264;2022-10-26T14:36:21;22.50;99.90
21238;DHT22;10777;50.828;3.264;2022-10-26T14:38:53;22.40;99.90
21238;DHT22;10777;50.828;3.264;2022-10-26T14:41:20;22.30;99.90
21238;DHT22;10777;50.828;3.264;2022-10-26T14:43:46;22.30;99.90
21238;DHT22;10777;50.828;3.264;2022-10-26T14:46:15;22.20;99.90
21238;DHT22;10777;50.828;3.264;2022-10-26T14:48:54;22.20;99.90
21238;DHT22;10777;50.828;3.264;2022-10-26T14:51:25;22.30;99.90
21238;DHT22;10777;50.828;3.264;2022-10-26T14:53:53;22.40;99.90
21238;DHT22;10777;50.828;3.264;2022-10-26T14:56:30;22.20;99.90
21238;DHT22;10777;50.828;3.264;2022-10-26T14:58:56;22.10;99.90
21238;DHT22;10777;50.828;3.264;2022-10-26T15:01:27;22.20;99.90
21238;DHT22;10777;50.828;3.264;2022-10-26T15:03:58;22.30;99.90
21238;DHT22;10777;50.828;3.264;2022-10-26T15:06:30;22.20;99.90
21238;DHT22;10777;50.828;3.264;2022-10-26T15:08:59;22.10;99.90
21238;DHT22;10777;50.828;3.264;2022-10-26T15:11:26;22.10;99.90
21238;DHT22;10777;50.828;3.264;2022-10-26T15:13:53;22.10;99.90
21238;DHT22;10777;50.828;3.264;2022-10-26T15:16:22;22.10;99.90
21238;DHT22;10777;50.828;3.264;2022-10-26T15:18:50;22.20;99.90
21238;DHT22;10777;50.828;3.264;2022-10-26T15:21:24;22.20;99.90
21238;DHT22;10777;50.828;3.264;2022-10-26T15:23:51;22.10;99.90
21238;DHT22;10777;50.828;3.264;2022-10-26T15:26:18;22.20;99.90
21238;DHT22;10777;50.828;3.264;2022-10-26T15:28:44;22.20;99.90
21238;DHT22;10777;50.828;3.264;2022-10-26T15:31:28;22.20;99.90
21238;DHT22;10777;50.828;3.264;2022-10-26T15:34:10;22.00;99.90
21238;DHT22;10777;50.828;3.264;2022-10-26T15:36:38;22.10;99.90
21238;DHT22;10777;50.828;3.264;2022-10-26T15:39:04;21.90;99.90
21238;DHT22;10777;50.828;3.264;2022-10-26T15:41:32;21.70;99.90
21238;DHT22;10777;50.828;3.264;2022-10-26T15:44:02;21.70;99.90
21238;DHT22;10777;50.828;3.264;2022-10-26T15:46:32;21.70;99.90
21238;DHT22;10777;50.828;3.264;2022-10-26T15:49:02;21.70;99.90
21238;DHT22;10777;50.828;3.264;2022-10-26T15:51:28;21.70;99.90
21238;DHT22;10777;50.828;3.264;2022-10-26T15:53:56;21.70;99.90
21238;DHT22;10777;50.828;3.264;2022-10-26T15:56:24;21.70;99.90
21238;DHT22;10777;50.828;3.264;2022-10-26T15:58:50;21.60;99.90
21238;DHT22;10777;50.828;3.264;2022-10-26T16:01:19;21.60;99.90
21238;DHT22;10777;50.828;3.264;2022-10-26T16:03:45;21.50;99.90
21238;DHT22;10777;50.828;3.264;2022-10-26T16:06:15;21.50;99.90
21238;DHT22;10777;50.828;3.264;2022-10-26T16:08:47;21.70;99.90
21238;DHT22;10777;50.828;3.264;2022-10-26T16:11:14;21.60;99.90
21238;DHT22;10777;50.828;3.264;2022-10-26T16:13:40;21.60;99.90
21238;DHT22;10777;50.828;3.264;2022-10-26T16:16:15;21.60;99.90
21238;DHT22;10777;50.828;3.264;2022-10-26T16:18:41;21.50;99.90
21238;DHT22;10777;50.828;3.264;2022-10-26T16:21:16;21.50;99.90
21238;DHT22;10777;50.828;3.264;2022-10-26T16:23:45;21.50;99.90